Airfield :
LOGIN :

Register | Disclaimer

   EN    FR    IT 

 










Legend :    VFR   Marginal VFR   IFR   Intensive IFR   Very Intensive IFR
Visi :
Ceiling :
>= 8 km
>= 3000ft
5 to 8 km
1000 to 3000 ft
1500m to 5 km
500 to 1000 ft
800 to 1500m
200 to 500 ft
< 800m
< 200 ft
Symbols :   Thunderstorms  Fog  Heavy snow  Heavy precipitations  Wind > 20 kt
SIGMETs :     Misc.  Thunderstorms  Icing  Turbulence  Mountain Waves  Volcanic Ashes






- Airport Elevation : 194 ft
- IATA code : IEG


EPZG - Zielona Gora Babimost

CURRENT METAR :
  • 031330Z 21007KT 170V240 9999 FEW042 22/11 Q1013

EXPIRED METARs :
  • 031300Z 23006KT 180V290 9999 FEW044 22/11 Q1013
  • 031230Z VRB05KT 9999 FEW041 22/12 Q1014
  • 031200Z 22006KT 170V280 9999 FEW041 22/12 Q1014
  • 031130Z 19005KT 110V240 9999 FEW040 20/10 Q1014
  • 031100Z 22005KT 160V280 9999 FEW032 20/12 Q1015

TAF TAF EPZG
Valid from the 03 at 12:00 until the 03 at 21:00 UTC


031130Z 0312/0321 22005KT CAVOK
TEMPO 0312/0321 SHRA BKN030CB
PROB30
TEMPO 0315/0319 VRB15G26KT 4000 TSRA



MET'MAP, your aeronautical weather chart ! - Copyright ORBIFLY December 2007 - Disclaimer

ORBIFLY MET'MAP TEAM :

Programming & Development : Alexandra Zaïnal
Concept & original design : Baudouin d'Aumeries
Assistance for programming : Marc-Olivier Méhu
Technical & hardware support : Manuel Goepfert

Contact : metmap@orbifly.com




SOURCES & CREDITS :

   NOAA